createdAt,value
2019-04-21T00:02:05.794Z,40.48
2019-04-21T00:07:28.089Z,40.90
2019-04-21T00:12:28.671Z,40.90
2019-04-21T00:17:24.424Z,40.98
2019-04-21T00:22:38.033Z,41.15
2019-04-21T00:27:47.760Z,41.27
2019-04-21T00:32:48.759Z,41.18
2019-04-21T00:38:00.553Z,40.86
2019-04-21T00:43:03.596Z,40.86
2019-04-21T00:48:16.594Z,41.08
2019-04-21T00:53:32.138Z,41.37
2019-04-21T00:58:33.281Z,41.43
2019-04-21T01:03:43.256Z,40.88
2019-04-21T01:08:42.662Z,40.88
2019-04-21T01:13:51.721Z,41.27
2019-04-21T01:18:51.692Z,40.78
2019-04-21T01:23:38.144Z,41.07
2019-04-21T01:29:02.787Z,41.07
2019-04-21T01:34:08.401Z,41.80
2019-04-21T01:39:14.989Z,41.80
2019-04-21T01:44:25.072Z,41.07
2019-04-21T01:49:15.808Z,41.56
2019-04-21T01:54:48.297Z,41.32
2019-04-21T01:59:45.760Z,41.82
2019-04-21T02:05:06.971Z,41.78
2019-04-21T02:10:06.485Z,41.46
2019-04-21T02:15:11.538Z,41.46
2019-04-21T02:20:06.693Z,41.39
2019-04-21T02:25:23.112Z,41.86
2019-04-21T02:30:50.071Z,41.64
2019-04-21T02:35:50.866Z,41.73
2019-04-21T02:45:58.598Z,42.24
2019-04-21T02:50:52.901Z,42.07
2019-04-21T03:01:38.299Z,41.92
2019-04-21T03:12:07.020Z,41.85
2019-04-21T03:17:05.637Z,42.54
2019-04-21T03:22:12.894Z,42.60
2019-04-21T03:27:37.719Z,42.11
2019-04-21T03:42:33.779Z,42.45
2019-04-21T03:52:46.333Z,42.79
2019-04-21T04:08:22.810Z,42.69
2019-04-21T04:13:19.357Z,42.54
2019-04-21T04:18:28.575Z,43.08
2019-04-21T04:23:31.603Z,42.67
2019-04-21T04:28:38.362Z,43.21
2019-04-21T04:33:53.420Z,42.92
2019-04-21T04:38:46.847Z,43.58
2019-04-21T04:53:58.819Z,43.17
2019-04-21T04:59:28.175Z,43.75
2019-04-21T05:09:15.443Z,43.70
2019-04-21T05:20:15.664Z,43.84
2019-04-21T05:24:25.345Z,43.84
2019-04-21T05:29:38.811Z,44.00
2019-04-21T05:34:50.390Z,44.03
2019-04-21T05:39:57.870Z,44.20
2019-04-21T05:45:24.157Z,44.01
2019-04-21T05:50:14.131Z,43.54
2019-04-21T05:55:31.755Z,43.54
2019-04-21T06:00:46.742Z,44.12
2019-04-21T06:10:43.288Z,44.21
2019-04-21T06:15:50.280Z,44.21
2019-04-21T06:20:54.281Z,44.44
2019-04-21T06:26:12.176Z,44.46
2019-04-21T06:31:12.587Z,44.21
2019-04-21T06:36:36.324Z,44.28
2019-04-21T06:46:48.893Z,45.01
2019-04-21T06:51:43.213Z,45.12
2019-04-21T06:57:17.059Z,45.01
2019-04-21T07:01:56.722Z,44.83
2019-04-21T07:06:59.261Z,34.41
2019-04-21T07:12:07.488Z,34.32
2019-04-21T07:17:20.116Z,34.13
2019-04-21T07:22:17.760Z,34.13
2019-04-21T07:27:28.955Z,33.64
2019-04-21T07:32:51.322Z,34.66
2019-04-21T07:37:35.294Z,34.66
2019-04-21T07:42:38.003Z,32.99
2019-04-21T07:47:51.769Z,35.20
2019-04-21T07:53:08.015Z,32.78
2019-04-21T07:58:12.460Z,32.68
2019-04-21T08:03:13.918Z,33.24
2019-04-21T08:08:15.683Z,34.07
2019-04-21T08:13:38.189Z,32.30
2019-04-21T08:18:35.018Z,30.65
2019-04-21T08:23:37.024Z,32.82
2019-04-21T08:28:49.468Z,33.95
2019-04-21T08:33:55.410Z,33.95
2019-04-21T08:38:53.966Z,31.82
2019-04-21T08:43:56.124Z,31.82
2019-04-21T08:49:08.050Z,32.05
2019-04-21T08:54:15.175Z,32.05
2019-04-21T08:59:39.053Z,29.46
2019-04-21T09:04:44.686Z,29.46
2019-04-21T09:09:54.332Z,29.23
2019-04-21T09:14:56.729Z,29.88
2019-04-21T09:20:10.659Z,30.29
2019-04-21T09:25:01.466Z,29.91
2019-04-21T09:29:57.674Z,29.91
2019-04-21T09:35:05.429Z,30.34
2019-04-21T09:40:04.926Z,30.09
2019-04-21T09:45:11.772Z,30.43
2019-04-21T09:50:15.164Z,31.17
2019-04-21T09:55:22.866Z,31.17
2019-04-21T10:00:28.720Z,28.92
2019-04-21T10:05:30.005Z,28.47
2019-04-21T10:10:34.184Z,27.92
2019-04-21T10:15:38.060Z,27.92
2019-04-21T10:20:42.784Z,28.16
2019-04-21T10:25:46.724Z,28.16
2019-04-21T10:30:50.961Z,26.52
2019-04-21T10:35:55.140Z,26.92
2019-04-21T11:34:39.011Z,27.99
2019-04-21T11:39:52.183Z,28.89
2019-04-21T11:44:49.431Z,29.02
2019-04-21T11:49:54.829Z,29.02
2019-04-21T11:54:58.796Z,30.23
2019-04-21T12:00:03.822Z,30.45
2019-04-21T12:05:09.753Z,30.75
2019-04-21T12:10:13.620Z,30.75
2019-04-21T12:15:18.748Z,31.90
2019-04-21T12:20:22.745Z,31.84
2019-04-21T12:25:29.747Z,31.84
2019-04-21T12:30:33.590Z,31.71
2019-04-21T12:35:37.805Z,32.14
2019-04-21T12:40:42.272Z,32.62
2019-04-21T12:45:46.164Z,32.67
2019-04-21T12:50:49.999Z,32.67
2019-04-21T12:55:53.891Z,32.96
2019-04-21T13:00:58.854Z,33.00
2019-04-21T13:06:03.476Z,33.00
2019-04-21T13:11:09.397Z,32.95
2019-04-21T13:16:13.592Z,32.67
2019-04-21T13:21:18.144Z,33.26
2019-04-21T13:26:29.670Z,34.04
2019-04-21T13:31:27.597Z,34.51
2019-04-21T13:36:31.746Z,34.84
2019-04-21T13:41:48.345Z,34.84
2019-04-21T13:46:43.014Z,34.63
2019-04-21T13:51:48.019Z,35.20
2019-04-21T13:56:52.369Z,35.52
2019-04-21T14:01:56.294Z,35.52
2019-04-21T14:07:00.510Z,35.41
2019-04-21T14:12:05.412Z,35.34
2019-04-21T14:17:10.795Z,35.87
2019-04-21T14:22:16.401Z,35.60
2019-04-21T14:27:20.504Z,35.91
2019-04-21T14:32:24.432Z,35.91
2019-04-21T14:37:28.762Z,35.99
2019-04-21T14:42:33.929Z,36.06
2019-04-21T14:47:56.711Z,36.21
2019-04-21T14:53:17.938Z,36.21
2019-04-21T14:58:23.275Z,36.35
2019-04-21T15:03:27.839Z,36.70
2019-04-21T15:08:33.282Z,36.07
2019-04-21T15:13:37.713Z,36.56
2019-04-21T15:18:41.475Z,36.76
2019-04-21T15:23:46.560Z,36.76
2019-04-21T15:28:51.015Z,36.84
2019-04-21T15:33:55.016Z,37.08
2019-04-21T15:38:58.812Z,36.80
2019-04-21T15:44:04.768Z,37.09
2019-04-21T15:49:09.235Z,36.62
2019-04-21T15:54:14.364Z,36.62
2019-04-21T15:59:34.703Z,36.81
2019-04-21T16:04:38.947Z,37.49
2019-04-21T16:09:43.963Z,37.76
2019-04-21T16:14:47.890Z,37.76
2019-04-21T16:19:52.194Z,37.40
2019-04-21T16:24:56.839Z,37.06
2019-04-21T16:30:01.964Z,37.06
2019-04-21T16:35:10.462Z,37.58
2019-04-21T16:40:13.691Z,37.75
2019-04-21T16:45:18.840Z,37.75
2019-04-21T16:50:23.582Z,38.06
2019-04-21T16:55:35.313Z,37.58
2019-04-21T17:00:44.850Z,37.86
2019-04-21T17:05:45.864Z,38.34
2019-04-21T17:11:05.604Z,38.34
2019-04-21T17:16:16.443Z,37.83
2019-04-21T17:21:02.914Z,38.25
2019-04-21T17:26:06.627Z,37.90
2019-04-21T17:31:10.929Z,38.07
2019-04-21T17:36:14.844Z,38.07
2019-04-21T17:41:27.860Z,38.17
2019-04-21T17:46:34.501Z,38.42
2019-04-21T17:51:55.621Z,38.42
2019-04-21T17:57:32.088Z,38.84
2019-04-21T18:02:26.367Z,38.62
2019-04-21T18:07:31.471Z,38.62
2019-04-21T18:12:28.036Z,38.51
2019-04-21T18:17:20.700Z,38.51
2019-04-21T18:22:51.261Z,38.67
2019-04-21T18:27:54.563Z,38.48
2019-04-21T18:32:59.945Z,38.61
2019-04-21T18:38:16.910Z,38.61
2019-04-21T18:43:50.160Z,39.65
2019-04-21T18:48:38.873Z,39.65
2019-04-21T18:54:22.643Z,39.10
2019-04-21T18:59:08.887Z,39.24
2019-04-21T19:04:19.670Z,38.96
2019-04-21T19:09:55.921Z,39.39
2019-04-21T19:14:41.119Z,39.39
2019-04-21T19:24:52.296Z,38.09
2019-04-21T19:30:05.475Z,38.80
2019-04-21T19:34:48.574Z,38.80
2019-04-21T19:40:05.682Z,38.07
2019-04-21T19:45:14.982Z,38.18
2019-04-21T19:50:26.359Z,38.18
2019-04-21T19:55:09.752Z,37.87
2019-04-21T20:00:15.518Z,37.87
2019-04-21T20:05:27.153Z,38.04
2019-04-21T20:10:44.334Z,38.38
2019-04-21T20:15:52.042Z,38.09
2019-04-21T20:20:37.236Z,38.09
2019-04-21T20:25:47.489Z,38.55
2019-04-21T20:31:06.766Z,38.82
2019-04-21T20:36:16.939Z,38.72
2019-04-21T20:41:07.767Z,38.72
2019-04-21T20:46:18.188Z,38.72
2019-04-21T20:51:29.880Z,38.80
2019-04-21T20:56:26.872Z,38.96
2019-04-21T21:01:36.214Z,38.96
2019-04-21T21:06:43.858Z,38.73
2019-04-21T21:11:56.926Z,38.74
2019-04-21T21:16:56.621Z,38.75
2019-04-21T21:21:56.335Z,38.95
2019-04-21T21:27:07.479Z,39.08
2019-04-21T21:32:18.486Z,39.08
2019-04-21T21:37:26.640Z,38.92
2019-04-21T21:42:06.096Z,39.08
2019-04-21T21:47:24.191Z,39.35
2019-04-21T21:52:30.475Z,39.35
2019-04-21T21:57:20.678Z,39.49
2019-04-21T22:02:33.066Z,39.49
2019-04-21T22:07:33.218Z,39.71
2019-04-21T22:12:45.782Z,39.48
2019-04-21T22:17:54.001Z,39.03
2019-04-21T22:22:56.151Z,39.03
2019-04-21T22:27:53.678Z,39.17
2019-04-21T22:33:04.513Z,39.17
2019-04-21T22:38:19.831Z,39.57
2019-04-21T22:43:19.817Z,39.92
2019-04-21T22:48:18.249Z,39.71
2019-04-21T22:53:21.409Z,39.71
2019-04-21T22:58:31.951Z,39.92
2019-04-21T23:03:32.549Z,39.75
2019-04-21T23:08:41.977Z,39.82
2019-04-21T23:13:45.110Z,39.82
2019-04-21T23:19:07.764Z,40.12
2019-04-21T23:24:11.260Z,40.24
2019-04-21T23:29:17.427Z,40.04
2019-04-21T23:34:06.300Z,40.14
2019-04-21T23:39:16.007Z,40.42
2019-04-21T23:44:18.981Z,40.51
2019-04-21T23:49:34.573Z,40.20
2019-04-21T23:54:27.313Z,40.20
2019-04-21T23:59:38.691Z,40.43
